• Join FlightAware (Why Join?)
  • Login
  • US Flag 
12:24PM EST


 

Airport Tracker/Info


-or-


 

Live Flight TrackerFlight Track Log ✈ N210PM ✈ 30-Nov-2013 ✈ KGRI - KLNK

Flight Track Log - Related Links

Times and Time Zones

All times are in EST time to prevent confusion due to time zone crossing. See the N210PM flight status page for this flight to view local times or setup timezone preferences in your user account.

Time Position Orientation Groundspeed Altitude Reporting Facility
EST Latitude Longitude Course Direction KTS MPH feet Rate Location/Type
10:24PM 40.9925 -98.2697 63° Northeast 170 196 5,300  Level Minneapolis Center
10:25PM 40.9282 -97.7548 95° East  Level Estimated
10:25PM 40.9869 -98.1997 96° East 189 217 8,300  Level Minneapolis Center
10:26PM 40.9210 -97.6625 96° East  Level FlightAware Approximate
10:26PM 40.9789 -98.1106 97° East 240 276 9,000  Level Minneapolis Center
10:27PM 40.9141 -97.5701 90° East  Level Estimated
10:27PM 40.9689 -98.0067 97° East 279 321 9,000  Level Minneapolis Center
10:28PM 40.9072 -97.4777 90° East  Level Estimated
10:28PM 40.9597 -97.9006 96° East 289 333 9,000  Level Minneapolis Center
10:29PM 40.9494 -97.7936 97° East 292 336 9,000  Level Minneapolis Center
10:29PM 40.9197 -97.7019 113° Southeast 292 336 9,000  Level Minneapolis Center
10:30PM 40.9406 -97.6881 27° Northeast 291 335 9,000  Level Minneapolis Center
10:30PM 40.9142 -97.6308 121° Southeast 292 336 9,000  Level Minneapolis Center
10:31PM 40.9286 -97.5594 75° East 293 337 9,000  Level Minneapolis Center
10:31PM 40.9039 -97.5161 127° Southeast 294 338 9,000  Level Minneapolis Center
10:32PM 40.9178 -97.4528 74° East 292 336 9,000  Level Minneapolis Center
10:32PM 40.8964 -97.4094 123° Southeast 294 338 9,000  Level Minneapolis Center
10:33PM 40.9081 -97.3489 76° East 294 338 9,000  Level Minneapolis Center
10:33PM 40.8864 -97.3028 122° Southeast 294 338 9,000 -780 Level Minneapolis Center
10:34PM 40.8953 -97.2436 79° East 292 336 8,200 -1,380 Descending Minneapolis Center
10:34PM 40.8683 -97.2028 131° Southeast 286 329 7,600 -1,500 Descending Minneapolis Center
10:35PM 40.8728 -97.1442 84° East 285 328 6,700 -1,500 Descending Minneapolis Center
10:35PM 40.8478 -97.0947 124° Southeast 277 319 6,100 -1,380 Descending Minneapolis Center
10:36PM 40.8525 -97.0472 82° East 278 320 5,300 -1,380 Descending Minneapolis Center
10:36PM 40.8297 -97.0000 123° Southeast 268 308 4,700 -1,380 Descending Minneapolis Center
10:37PM 40.8347 -96.9544 82° East 268 308 3,900 -1,440 Descending Minneapolis Center
10:37PM 40.8142 -96.9081 120° Southeast 258 297 3,300 -900 Descending Minneapolis Center
10:38PM 40.8183 -96.8642 83° East 262 302 3,000 -600 Descending Minneapolis Center
10:38PM 40.8008 -96.8242 120° Southeast 196 226 2,700 -600 Descending Minneapolis Center
10:39PM 40.8075 -96.7900 76° East 203 234 2,400 -420 Descending Minneapolis Center
10:39PM 40.7956 -96.7697 128° Southeast 131 151 2,300 -720 Descending Minneapolis Center
10:40PM 40.8175 -96.7500 34° Northeast 148 170 1,700 -840 Descending Minneapolis Center
10:40PM 40.8172 -96.7453 94° East 96 110 1,500 -720 Descending Minneapolis Center
10:42PM 40.8500 -96.7500 North  Level FlightAware Approximate
10:49PM 40.8509 -96.7591 North  Level Estimated